Main page
METAR-TAF:

METAR-TAF

Airports :

Recife/Guararapes–Gilberto Freyre International Airport

Recife, Pernambuco, Brazil

latitude: 08-08S, longitude: 034-55W, elevation: 19 m

Current weather observation

The report was made 9 minutes ago, at 15:00 UTC
Wind 8 kt from variable directions
Temperature 28°C
Humidity 66%
Pressure 1012 hPa
Visibility 10 km or more
Scattered clouds at a height of 2500 ft

METAR: SBRF 221500Z VRB08KT 9999 SCT025 28/21 Q1012

Time: 12:09 (15:09 UTC)

Forecast

The report was made 5 hours and 9 minutes ago, at 10:00 UTC
Forecast valid from 22 at 12 UTC to 23 at 12 UTC
Wind 10 kt from the East
Visibility 10 km or more
Scattered clouds at a height of 2300 ft
Becoming
from 22 at 19 UTC to 22 at 21 UTC
Wind 8 kt from the East/Southeast

TAF: SBRF 221000Z 2212/2312 09010KT 9999 SCT023 TX29/2214Z TN23/2306Z BECMG 2219/2221 12008KT RMK PEH

Weather observations and forecasts of more than 4000 airports (METAR and TAF reports).

The available stations are represented by yellow and red dots on the map.

Hover mouse over dot to see the name of the station.

Then click to see weather observations and forecasts.

To change the map : click on the green buttons with a black cross to zoom in, on the green button with a dash to zoom out, or on the green arrows for adjacent maps.


METAR-TAF: